North Cornwall, Pennsylvania
Current Conditions -  °F | °C
As of 5:24 PM on Sunday 25 Jan 2015 (Local Time) from KMUI Reporting Station
Broken Clouds Broken Clouds  
Wind Chill: 37°   Ceiling: 2800
Heat Index: 37°   Visibility: 10mi
Dew Point: 28°   Wind: 0mph
Humidity: 70%   Direction: NA
Pressure: 29.84"   Gusts: NA
Location:  40.2957°N, 76.4189°W
Report Text: KMUI 252224Z AUTO 00000KT 10SM FEW022 BKN028 03/M02 A2984 RMK AO2 BKN V SCT
Loading
Personal Weather Stations






























Interactive Weather Map New forecast layout! Learn more

10-Day Weather Forecast

Advertisements
Track Severe Weather on mobile